sensor_id;sensor_type;location;lat;lon;timestamp;P1;durP1;ratioP1;P2;durP2;ratioP2
86011;SDS011;76591;42.170;27.850;2024-03-25T00:00:13;15.68;;;5.93;;
86011;SDS011;76591;42.170;27.850;2024-03-25T00:02:39;12.30;;;6.20;;
86011;SDS011;76591;42.170;27.850;2024-03-25T00:05:06;19.83;;;7.10;;
86011;SDS011;76591;42.170;27.850;2024-03-25T00:07:34;23.02;;;10.30;;
86011;SDS011;76591;42.170;27.850;2024-03-25T00:10:04;32.63;;;11.05;;
86011;SDS011;76591;42.170;27.850;2024-03-25T00:12:31;31.08;;;10.88;;
86011;SDS011;76591;42.170;27.850;2024-03-25T00:14:57;31.20;;;10.90;;
86011;SDS011;76591;42.170;27.850;2024-03-25T00:17:23;21.42;;;10.10;;
86011;SDS011;76591;42.170;27.850;2024-03-25T00:19:48;23.00;;;10.13;;
86011;SDS011;76591;42.170;27.850;2024-03-25T00:22:17;26.40;;;10.10;;
86011;SDS011;76591;42.170;27.850;2024-03-25T00:24:44;26.52;;;12.38;;
86011;SDS011;76591;42.170;27.850;2024-03-25T00:27:11;21.85;;;9.27;;
86011;SDS011;76591;42.170;27.850;2024-03-25T00:29:37;17.08;;;7.63;;
86011;SDS011;76591;42.170;27.850;2024-03-25T00:32:03;19.70;;;7.55;;
86011;SDS011;76591;42.170;27.850;2024-03-25T00:34:29;15.63;;;8.32;;
86011;SDS011;76591;42.170;27.850;2024-03-25T00:36:55;21.23;;;8.52;;
86011;SDS011;76591;42.170;27.850;2024-03-25T00:39:21;18.42;;;7.65;;
86011;SDS011;76591;42.170;27.850;2024-03-25T00:41:47;22.42;;;10.10;;
86011;SDS011;76591;42.170;27.850;2024-03-25T00:44:12;19.20;;;8.73;;
86011;SDS011;76591;42.170;27.850;2024-03-25T00:46:38;19.75;;;9.60;;
86011;SDS011;76591;42.170;27.850;2024-03-25T00:49:05;17.15;;;8.50;;
86011;SDS011;76591;42.170;27.850;2024-03-25T00:51:31;17.23;;;7.68;;
86011;SDS011;76591;42.170;27.850;2024-03-25T00:53:56;19.65;;;7.38;;
86011;SDS011;76591;42.170;27.850;2024-03-25T00:56:22;18.38;;;8.45;;
86011;SDS011;76591;42.170;27.850;2024-03-25T00:58:48;16.17;;;7.55;;
86011;SDS011;76591;42.170;27.850;2024-03-25T01:01:13;17.92;;;7.88;;
86011;SDS011;76591;42.170;27.850;2024-03-25T01:03:39;15.45;;;7.53;;
86011;SDS011;76591;42.170;27.850;2024-03-25T01:06:05;20.58;;;9.38;;
86011;SDS011;76591;42.170;27.850;2024-03-25T01:08:30;16.30;;;8.35;;
86011;SDS011;76591;42.170;27.850;2024-03-25T01:10:56;22.67;;;8.85;;
86011;SDS011;76591;42.170;27.850;2024-03-25T01:13:21;23.75;;;6.82;;
86011;SDS011;76591;42.170;27.850;2024-03-25T01:15:47;19.15;;;9.70;;
86011;SDS011;76591;42.170;27.850;2024-03-25T01:18:13;17.75;;;8.52;;
86011;SDS011;76591;42.170;27.850;2024-03-25T01:20:38;28.08;;;9.70;;
86011;SDS011;76591;42.170;27.850;2024-03-25T01:23:04;25.45;;;9.60;;
86011;SDS011;76591;42.170;27.850;2024-03-25T01:25:30;18.05;;;7.43;;
86011;SDS011;76591;42.170;27.850;2024-03-25T01:27:56;15.07;;;7.55;;
86011;SDS011;76591;42.170;27.850;2024-03-25T01:30:22;22.33;;;7.85;;
86011;SDS011;76591;42.170;27.850;2024-03-25T01:32:47;18.60;;;8.32;;
86011;SDS011;76591;42.170;27.850;2024-03-25T01:35:14;17.73;;;7.00;;
86011;SDS011;76591;42.170;27.850;2024-03-25T01:37:43;18.10;;;7.35;;
86011;SDS011;76591;42.170;27.850;2024-03-25T01:40:08;11.80;;;6.13;;
86011;SDS011;76591;42.170;27.850;2024-03-25T01:42:37;16.27;;;6.65;;
86011;SDS011;76591;42.170;27.850;2024-03-25T01:45:03;11.38;;;5.75;;
86011;SDS011;76591;42.170;27.850;2024-03-25T01:47:32;11.05;;;5.65;;
86011;SDS011;76591;42.170;27.850;2024-03-25T01:50:00;12.48;;;5.78;;
86011;SDS011;76591;42.170;27.850;2024-03-25T01:52:28;15.55;;;5.40;;
86011;SDS011;76591;42.170;27.850;2024-03-25T01:54:55;9.50;;;5.80;;
86011;SDS011;76591;42.170;27.850;2024-03-25T01:57:21;14.80;;;5.80;;
86011;SDS011;76591;42.170;27.850;2024-03-25T01:59:47;7.00;;;4.82;;
86011;SDS011;76591;42.170;27.850;2024-03-25T02:02:13;9.40;;;4.30;;
86011;SDS011;76591;42.170;27.850;2024-03-25T02:04:39;8.95;;;3.47;;
86011;SDS011;76591;42.170;27.850;2024-03-25T02:07:07;10.55;;;4.43;;
86011;SDS011;76591;42.170;27.850;2024-03-25T02:09:34;7.18;;;4.20;;
86011;SDS011;76591;42.170;27.850;2024-03-25T02:12:01;6.93;;;4.00;;
86011;SDS011;76591;42.170;27.850;2024-03-25T02:14:27;10.75;;;5.10;;
86011;SDS011;76591;42.170;27.850;2024-03-25T02:16:53;15.63;;;6.40;;
86011;SDS011;76591;42.170;27.850;2024-03-25T02:19:19;20.38;;;8.32;;
86011;SDS011;76591;42.170;27.850;2024-03-25T02:21:48;27.25;;;11.02;;
86011;SDS011;76591;42.170;27.850;2024-03-25T02:24:13;33.03;;;11.93;;
86011;SDS011;76591;42.170;27.850;2024-03-25T02:26:40;21.90;;;9.73;;
86011;SDS011;76591;42.170;27.850;2024-03-25T02:29:08;17.10;;;8.40;;
86011;SDS011;76591;42.170;27.850;2024-03-25T02:31:34;20.48;;;10.18;;
86011;SDS011;76591;42.170;27.850;2024-03-25T02:34:00;17.20;;;9.32;;
86011;SDS011;76591;42.170;27.850;2024-03-25T02:36:26;18.60;;;8.57;;
86011;SDS011;76591;42.170;27.850;2024-03-25T02:38:51;21.05;;;8.13;;
86011;SDS011;76591;42.170;27.850;2024-03-25T02:41:17;19.45;;;8.30;;
86011;SDS011;76591;42.170;27.850;2024-03-25T02:43:43;18.17;;;7.80;;
86011;SDS011;76591;42.170;27.850;2024-03-25T02:46:09;13.20;;;6.55;;
86011;SDS011;76591;42.170;27.850;2024-03-25T02:48:34;12.98;;;6.00;;
86011;SDS011;76591;42.170;27.850;2024-03-25T02:51:00;7.15;;;4.15;;
86011;SDS011;76591;42.170;27.850;2024-03-25T02:53:25;13.13;;;5.03;;
86011;SDS011;76591;42.170;27.850;2024-03-25T02:55:51;12.40;;;5.15;;
86011;SDS011;76591;42.170;27.850;2024-03-25T02:58:17;11.63;;;3.90;;
86011;SDS011;76591;42.170;27.850;2024-03-25T03:00:42;7.38;;;4.00;;
86011;SDS011;76591;42.170;27.850;2024-03-25T03:03:09;13.15;;;4.53;;
86011;SDS011;76591;42.170;27.850;2024-03-25T03:05:34;6.95;;;4.65;;
86011;SDS011;76591;42.170;27.850;2024-03-25T03:08:00;6.18;;;3.50;;
86011;SDS011;76591;42.170;27.850;2024-03-25T03:10:26;6.03;;;3.72;;
86011;SDS011;76591;42.170;27.850;2024-03-25T03:12:51;9.20;;;5.15;;
86011;SDS011;76591;42.170;27.850;2024-03-25T03:15:17;9.55;;;4.63;;
86011;SDS011;76591;42.170;27.850;2024-03-25T03:17:42;9.23;;;4.35;;
86011;SDS011;76591;42.170;27.850;2024-03-25T03:20:08;6.53;;;3.78;;
86011;SDS011;76591;42.170;27.850;2024-03-25T03:22:35;6.40;;;3.63;;
86011;SDS011;76591;42.170;27.850;2024-03-25T03:25:01;8.68;;;3.50;;
86011;SDS011;76591;42.170;27.850;2024-03-25T03:27:26;8.75;;;4.10;;
86011;SDS011;76591;42.170;27.850;2024-03-25T03:29:52;6.35;;;3.05;;
86011;SDS011;76591;42.170;27.850;2024-03-25T03:32:17;6.50;;;3.95;;
86011;SDS011;76591;42.170;27.850;2024-03-25T03:34:43;7.90;;;4.50;;
86011;SDS011;76591;42.170;27.850;2024-03-25T03:37:08;8.93;;;4.68;;
86011;SDS011;76591;42.170;27.850;2024-03-25T03:39:34;15.00;;;4.50;;
86011;SDS011;76591;42.170;27.850;2024-03-25T03:42:00;11.82;;;4.90;;
86011;SDS011;76591;42.170;27.850;2024-03-25T03:44:25;12.88;;;4.68;;
86011;SDS011;76591;42.170;27.850;2024-03-25T03:46:51;30.10;;;4.40;;
86011;SDS011;76591;42.170;27.850;2024-03-25T03:49:16;8.30;;;4.50;;
86011;SDS011;76591;42.170;27.850;2024-03-25T03:51:42;12.75;;;4.80;;
86011;SDS011;76591;42.170;27.850;2024-03-25T03:54:08;10.95;;;4.47;;
86011;SDS011;76591;42.170;27.850;2024-03-25T03:56:33;6.68;;;3.90;;
86011;SDS011;76591;42.170;27.850;2024-03-25T03:58:59;8.52;;;4.78;;
86011;SDS011;76591;42.170;27.850;2024-03-25T04:01:24;14.10;;;6.38;;
86011;SDS011;76591;42.170;27.850;2024-03-25T04:03:50;14.07;;;6.22;;
86011;SDS011;76591;42.170;27.850;2024-03-25T04:06:16;10.82;;;5.25;;
86011;SDS011;76591;42.170;27.850;2024-03-25T04:08:42;10.60;;;3.83;;
86011;SDS011;76591;42.170;27.850;2024-03-25T04:11:08;5.90;;;3.38;;
86011;SDS011;76591;42.170;27.850;2024-03-25T04:13:34;10.80;;;4.10;;
86011;SDS011;76591;42.170;27.850;2024-03-25T04:16:04;11.30;;;3.78;;
86011;SDS011;76591;42.170;27.850;2024-03-25T04:18:31;12.18;;;4.03;;
86011;SDS011;76591;42.170;27.850;2024-03-25T04:20:57;5.93;;;4.10;;
86011;SDS011;76591;42.170;27.850;2024-03-25T04:23:24;11.05;;;5.40;;
86011;SDS011;76591;42.170;27.850;2024-03-25T04:25:50;10.32;;;4.47;;
86011;SDS011;76591;42.170;27.850;2024-03-25T04:28:16;9.55;;;4.22;;
86011;SDS011;76591;42.170;27.850;2024-03-25T04:30:42;10.73;;;5.13;;
86011;SDS011;76591;42.170;27.850;2024-03-25T04:33:08;11.35;;;4.28;;
86011;SDS011;76591;42.170;27.850;2024-03-25T04:35:34;7.10;;;3.78;;
86011;SDS011;76591;42.170;27.850;2024-03-25T04:38:00;6.35;;;3.63;;
86011;SDS011;76591;42.170;27.850;2024-03-25T04:40:25;11.13;;;5.57;;
86011;SDS011;76591;42.170;27.850;2024-03-25T04:42:51;19.42;;;8.10;;
86011;SDS011;76591;42.170;27.850;2024-03-25T04:45:16;18.60;;;7.82;;
86011;SDS011;76591;42.170;27.850;2024-03-25T04:47:42;18.55;;;7.78;;
86011;SDS011;76591;42.170;27.850;2024-03-25T04:50:08;14.65;;;6.75;;
86011;SDS011;76591;42.170;27.850;2024-03-25T04:52:34;19.88;;;7.53;;
86011;SDS011;76591;42.170;27.850;2024-03-25T04:54:59;23.58;;;8.57;;
86011;SDS011;76591;42.170;27.850;2024-03-25T04:57:25;22.23;;;9.20;;
86011;SDS011;76591;42.170;27.850;2024-03-25T04:59:51;28.40;;;12.48;;
86011;SDS011;76591;42.170;27.850;2024-03-25T05:02:16;27.23;;;10.95;;
86011;SDS011;76591;42.170;27.850;2024-03-25T05:04:42;15.15;;;7.13;;
86011;SDS011;76591;42.170;27.850;2024-03-25T05:07:08;12.57;;;6.75;;
86011;SDS011;76591;42.170;27.850;2024-03-25T05:09:33;16.50;;;7.63;;
86011;SDS011;76591;42.170;27.850;2024-03-25T05:11:59;20.48;;;9.15;;
86011;SDS011;76591;42.170;27.850;2024-03-25T05:14:24;15.73;;;9.20;;
86011;SDS011;76591;42.170;27.850;2024-03-25T05:16:50;36.28;;;15.10;;
86011;SDS011;76591;42.170;27.850;2024-03-25T05:19:18;44.65;;;18.30;;
86011;SDS011;76591;42.170;27.850;2024-03-25T05:21:44;33.85;;;17.48;;
86011;SDS011;76591;42.170;27.850;2024-03-25T05:24:10;33.35;;;16.05;;
86011;SDS011;76591;42.170;27.850;2024-03-25T05:26:36;32.17;;;15.60;;
86011;SDS011;76591;42.170;27.850;2024-03-25T05:29:02;44.05;;;18.33;;
86011;SDS011;76591;42.170;27.850;2024-03-25T05:31:27;48.65;;;18.95;;
86011;SDS011;76591;42.170;27.850;2024-03-25T05:33:53;52.03;;;20.17;;
86011;SDS011;76591;42.170;27.850;2024-03-25T05:36:19;42.30;;;16.88;;
86011;SDS011;76591;42.170;27.850;2024-03-25T05:38:45;51.30;;;17.85;;
86011;SDS011;76591;42.170;27.850;2024-03-25T05:41:11;37.92;;;14.07;;
86011;SDS011;76591;42.170;27.850;2024-03-25T05:43:37;29.45;;;12.75;;
86011;SDS011;76591;42.170;27.850;2024-03-25T05:46:03;27.08;;;10.77;;
86011;SDS011;76591;42.170;27.850;2024-03-25T05:48:28;27.67;;;10.77;;
86011;SDS011;76591;42.170;27.850;2024-03-25T05:51:01;21.55;;;9.95;;
86011;SDS011;76591;42.170;27.850;2024-03-25T05:53:27;20.85;;;9.25;;
86011;SDS011;76591;42.170;27.850;2024-03-25T05:55:54;25.00;;;9.60;;
86011;SDS011;76591;42.170;27.850;2024-03-25T05:58:20;22.88;;;8.70;;
86011;SDS011;76591;42.170;27.850;2024-03-25T06:00:49;12.98;;;6.50;;
86011;SDS011;76591;42.170;27.850;2024-03-25T06:03:15;19.33;;;8.15;;
86011;SDS011;76591;42.170;27.850;2024-03-25T06:05:42;24.50;;;9.57;;
86011;SDS011;76591;42.170;27.850;2024-03-25T06:08:08;25.80;;;11.90;;
86011;SDS011;76591;42.170;27.850;2024-03-25T06:10:43;15.32;;;6.97;;
86011;SDS011;76591;42.170;27.850;2024-03-25T06:13:09;12.40;;;6.43;;
86011;SDS011;76591;42.170;27.850;2024-03-25T06:15:34;10.60;;;5.38;;
86011;SDS011;76591;42.170;27.850;2024-03-25T06:18:00;6.97;;;4.13;;
86011;SDS011;76591;42.170;27.850;2024-03-25T06:20:25;8.20;;;4.22;;
86011;SDS011;76591;42.170;27.850;2024-03-25T06:22:51;17.08;;;6.00;;
86011;SDS011;76591;42.170;27.850;2024-03-25T06:25:17;14.63;;;6.22;;
86011;SDS011;76591;42.170;27.850;2024-03-25T06:27:43;11.00;;;5.47;;
86011;SDS011;76591;42.170;27.850;2024-03-25T06:30:09;13.05;;;5.82;;
86011;SDS011;76591;42.170;27.850;2024-03-25T06:32:54;10.50;;;4.90;;
86011;SDS011;76591;42.170;27.850;2024-03-25T06:35:38;14.63;;;5.68;;
86011;SDS011;76591;42.170;27.850;2024-03-25T06:38:04;11.80;;;5.22;;
86011;SDS011;76591;42.170;27.850;2024-03-25T06:40:30;14.85;;;8.40;;
86011;SDS011;76591;42.170;27.850;2024-03-25T06:42:56;15.18;;;7.82;;
86011;SDS011;76591;42.170;27.850;2024-03-25T06:45:22;14.38;;;7.80;;
86011;SDS011;76591;42.170;27.850;2024-03-25T06:47:48;14.48;;;7.05;;
86011;SDS011;76591;42.170;27.850;2024-03-25T06:50:14;15.25;;;6.85;;
86011;SDS011;76591;42.170;27.850;2024-03-25T06:52:40;30.60;;;13.07;;
86011;SDS011;76591;42.170;27.850;2024-03-25T06:55:05;21.23;;;10.40;;
86011;SDS011;76591;42.170;27.850;2024-03-25T06:57:31;21.42;;;10.25;;
86011;SDS011;76591;42.170;27.850;2024-03-25T06:59:58;9.90;;;5.57;;
86011;SDS011;76591;42.170;27.850;2024-03-25T07:02:24;13.70;;;5.70;;
86011;SDS011;76591;42.170;27.850;2024-03-25T07:04:49;9.75;;;3.72;;
86011;SDS011;76591;42.170;27.850;2024-03-25T07:07:15;6.72;;;3.85;;
86011;SDS011;76591;42.170;27.850;2024-03-25T07:09:41;8.38;;;4.38;;
86011;SDS011;76591;42.170;27.850;2024-03-25T07:12:07;4.60;;;3.27;;
86011;SDS011;76591;42.170;27.850;2024-03-25T07:14:33;7.23;;;3.30;;
86011;SDS011;76591;42.170;27.850;2024-03-25T07:16:59;4.25;;;1.88;;
86011;SDS011;76591;42.170;27.850;2024-03-25T07:19:25;3.22;;;2.10;;
86011;SDS011;76591;42.170;27.850;2024-03-25T07:21:50;3.77;;;2.77;;
86011;SDS011;76591;42.170;27.850;2024-03-25T07:24:16;4.82;;;3.17;;
86011;SDS011;76591;42.170;27.850;2024-03-25T07:26:41;7.97;;;4.33;;
86011;SDS011;76591;42.170;27.850;2024-03-25T07:29:07;4.77;;;3.03;;
86011;SDS011;76591;42.170;27.850;2024-03-25T07:31:33;8.38;;;3.92;;
86011;SDS011;76591;42.170;27.850;2024-03-25T07:33:59;4.50;;;3.10;;
86011;SDS011;76591;42.170;27.850;2024-03-25T07:36:24;3.77;;;2.23;;
86011;SDS011;76591;42.170;27.850;2024-03-25T07:38:50;5.22;;;2.80;;
86011;SDS011;76591;42.170;27.850;2024-03-25T07:41:16;8.77;;;3.57;;
86011;SDS011;76591;42.170;27.850;2024-03-25T07:43:41;6.00;;;3.07;;
86011;SDS011;76591;42.170;27.850;2024-03-25T07:46:07;5.90;;;3.13;;
86011;SDS011;76591;42.170;27.850;2024-03-25T07:48:33;4.13;;;2.70;;
86011;SDS011;76591;42.170;27.850;2024-03-25T07:50:58;7.57;;;3.83;;
86011;SDS011;76591;42.170;27.850;2024-03-25T07:53:25;4.33;;;2.70;;
86011;SDS011;76591;42.170;27.850;2024-03-25T07:55:50;15.48;;;5.40;;
86011;SDS011;76591;42.170;27.850;2024-03-25T07:58:16;13.07;;;5.77;;
86011;SDS011;76591;42.170;27.850;2024-03-25T08:00:42;10.67;;;3.60;;
86011;SDS011;76591;42.170;27.850;2024-03-25T08:03:07;3.60;;;2.33;;
86011;SDS011;76591;42.170;27.850;2024-03-25T08:05:33;4.97;;;2.87;;
86011;SDS011;76591;42.170;27.850;2024-03-25T08:07:59;4.27;;;1.93;;
86011;SDS011;76591;42.170;27.850;2024-03-25T08:10:24;2.90;;;2.10;;
86011;SDS011;76591;42.170;27.850;2024-03-25T08:12:50;2.83;;;1.37;;
86011;SDS011;76591;42.170;27.850;2024-03-25T08:15:16;4.03;;;1.70;;
86011;SDS011;76591;42.170;27.850;2024-03-25T08:17:42;4.73;;;2.57;;
86011;SDS011;76591;42.170;27.850;2024-03-25T08:20:07;3.07;;;1.67;;
86011;SDS011;76591;42.170;27.850;2024-03-25T08:22:33;3.57;;;1.40;;
86011;SDS011;76591;42.170;27.850;2024-03-25T08:24:59;2.07;;;1.40;;
86011;SDS011;76591;42.170;27.850;2024-03-25T08:27:25;2.93;;;1.60;;
86011;SDS011;76591;42.170;27.850;2024-03-25T08:29:50;2.87;;;2.00;;
86011;SDS011;76591;42.170;27.850;2024-03-25T08:32:18;3.10;;;2.30;;
86011;SDS011;76591;42.170;27.850;2024-03-25T08:34:44;3.88;;;2.80;;
86011;SDS011;76591;42.170;27.850;2024-03-25T08:37:10;3.00;;;1.80;;
86011;SDS011;76591;42.170;27.850;2024-03-25T08:39:36;2.93;;;1.93;;
86011;SDS011;76591;42.170;27.850;2024-03-25T08:42:02;3.78;;;1.83;;
86011;SDS011;76591;42.170;27.850;2024-03-25T08:44:28;2.88;;;2.10;;
86011;SDS011;76591;42.170;27.850;2024-03-25T08:46:54;2.40;;;1.33;;
86011;SDS011;76591;42.170;27.850;2024-03-25T08:49:19;2.13;;;1.70;;
86011;SDS011;76591;42.170;27.850;2024-03-25T08:51:45;13.02;;;3.65;;
86011;SDS011;76591;42.170;27.850;2024-03-25T08:54:11;3.90;;;2.05;;
86011;SDS011;76591;42.170;27.850;2024-03-25T08:56:36;6.68;;;3.15;;
86011;SDS011;76591;42.170;27.850;2024-03-25T08:59:03;4.95;;;2.90;;
86011;SDS011;76591;42.170;27.850;2024-03-25T09:01:29;5.70;;;2.88;;
86011;SDS011;76591;42.170;27.850;2024-03-25T09:03:55;4.30;;;2.78;;
86011;SDS011;76591;42.170;27.850;2024-03-25T09:06:21;4.95;;;2.40;;
86011;SDS011;76591;42.170;27.850;2024-03-25T09:08:47;2.38;;;1.92;;
86011;SDS011;76591;42.170;27.850;2024-03-25T09:11:31;3.53;;;2.42;;
86011;SDS011;76591;42.170;27.850;2024-03-25T09:13:57;3.10;;;2.17;;
86011;SDS011;76591;42.170;27.850;2024-03-25T09:16:23;13.70;;;2.00;;
86011;SDS011;76591;42.170;27.850;2024-03-25T09:18:48;6.55;;;2.67;;
86011;SDS011;76591;42.170;27.850;2024-03-25T09:21:14;4.85;;;2.85;;
86011;SDS011;76591;42.170;27.850;2024-03-25T09:23:40;6.90;;;3.53;;
86011;SDS011;76591;42.170;27.850;2024-03-25T09:26:05;8.35;;;4.28;;
86011;SDS011;76591;42.170;27.850;2024-03-25T09:28:31;4.78;;;2.90;;
86011;SDS011;76591;42.170;27.850;2024-03-25T09:30:57;5.78;;;3.55;;
86011;SDS011;76591;42.170;27.850;2024-03-25T09:33:23;3.75;;;2.20;;
86011;SDS011;76591;42.170;27.850;2024-03-25T09:35:49;4.57;;;2.58;;
86011;SDS011;76591;42.170;27.850;2024-03-25T09:38:15;7.22;;;2.97;;
86011;SDS011;76591;42.170;27.850;2024-03-25T09:40:40;11.23;;;3.72;;
86011;SDS011;76591;42.170;27.850;2024-03-25T09:43:10;7.03;;;3.70;;
86011;SDS011;76591;42.170;27.850;2024-03-25T09:45:40;8.48;;;3.60;;
86011;SDS011;76591;42.170;27.850;2024-03-25T09:48:09;5.55;;;3.17;;
86011;SDS011;76591;42.170;27.850;2024-03-25T09:50:36;6.93;;;3.13;;
86011;SDS011;76591;42.170;27.850;2024-03-25T09:53:03;4.95;;;2.88;;
86011;SDS011;76591;42.170;27.850;2024-03-25T09:55:28;4.10;;;2.50;;
86011;SDS011;76591;42.170;27.850;2024-03-25T09:57:54;5.28;;;2.25;;
86011;SDS011;76591;42.170;27.850;2024-03-25T10:00:22;3.03;;;2.55;;
86011;SDS011;76591;42.170;27.850;2024-03-25T10:02:49;8.32;;;3.88;;
86011;SDS011;76591;42.170;27.850;2024-03-25T10:05:14;9.00;;;3.05;;
86011;SDS011;76591;42.170;27.850;2024-03-25T10:07:40;7.07;;;3.22;;
86011;SDS011;76591;42.170;27.850;2024-03-25T10:10:06;6.38;;;3.63;;
86011;SDS011;76591;42.170;27.850;2024-03-25T10:12:32;11.10;;;4.28;;
86011;SDS011;76591;42.170;27.850;2024-03-25T10:15:00;6.90;;;3.00;;
86011;SDS011;76591;42.170;27.850;2024-03-25T10:17:29;5.55;;;3.08;;
86011;SDS011;76591;42.170;27.850;2024-03-25T10:19:56;8.20;;;3.08;;
86011;SDS011;76591;42.170;27.850;2024-03-25T10:22:22;12.18;;;5.47;;
86011;SDS011;76591;42.170;27.850;2024-03-25T10:24:48;5.50;;;3.03;;
86011;SDS011;76591;42.170;27.850;2024-03-25T10:27:19;9.45;;;3.90;;
86011;SDS011;76591;42.170;27.850;2024-03-25T10:29:55;11.52;;;5.20;;
86011;SDS011;76591;42.170;27.850;2024-03-25T10:32:21;11.55;;;5.20;;
86011;SDS011;76591;42.170;27.850;2024-03-25T10:34:50;9.93;;;6.13;;
86011;SDS011;76591;42.170;27.850;2024-03-25T10:37:16;5.32;;;3.50;;
86011;SDS011;76591;42.170;27.850;2024-03-25T10:39:47;10.63;;;4.40;;
86011;SDS011;76591;42.170;27.850;2024-03-25T10:42:18;10.65;;;4.82;;
86011;SDS011;76591;42.170;27.850;2024-03-25T10:44:45;7.70;;;3.38;;
86011;SDS011;76591;42.170;27.850;2024-03-25T10:47:14;11.77;;;4.72;;
86011;SDS011;76591;42.170;27.850;2024-03-25T10:49:54;10.63;;;5.20;;
86011;SDS011;76591;42.170;27.850;2024-03-25T10:52:23;17.63;;;5.97;;
86011;SDS011;76591;42.170;27.850;2024-03-25T10:54:50;14.35;;;6.07;;
86011;SDS011;76591;42.170;27.850;2024-03-25T10:57:16;21.40;;;6.60;;
86011;SDS011;76591;42.170;27.850;2024-03-25T10:59:43;10.88;;;4.93;;
86011;SDS011;76591;42.170;27.850;2024-03-25T11:02:10;12.93;;;5.90;;
86011;SDS011;76591;42.170;27.850;2024-03-25T11:04:36;14.15;;;6.15;;
86011;SDS011;76591;42.170;27.850;2024-03-25T11:07:09;23.38;;;8.60;;
86011;SDS011;76591;42.170;27.850;2024-03-25T11:09:36;21.75;;;8.13;;
86011;SDS011;76591;42.170;27.850;2024-03-25T11:12:03;14.63;;;5.70;;
86011;SDS011;76591;42.170;27.850;2024-03-25T11:14:29;11.52;;;5.55;;
86011;SDS011;76591;42.170;27.850;2024-03-25T11:16:57;13.88;;;5.70;;
86011;SDS011;76591;42.170;27.850;2024-03-25T11:19:28;18.10;;;7.97;;
86011;SDS011;76591;42.170;27.850;2024-03-25T11:22:06;15.48;;;6.80;;
86011;SDS011;76591;42.170;27.850;2024-03-25T11:24:33;9.93;;;5.50;;
86011;SDS011;76591;42.170;27.850;2024-03-25T11:27:02;13.95;;;5.25;;
86011;SDS011;76591;42.170;27.850;2024-03-25T11:29:28;9.82;;;5.28;;
86011;SDS011;76591;42.170;27.850;2024-03-25T11:31:55;7.03;;;4.05;;
86011;SDS011;76591;42.170;27.850;2024-03-25T11:34:23;8.50;;;3.70;;
86011;SDS011;76591;42.170;27.850;2024-03-25T11:36:49;11.30;;;4.90;;
86011;SDS011;76591;42.170;27.850;2024-03-25T11:39:16;21.48;;;7.50;;
86011;SDS011;76591;42.170;27.850;2024-03-25T11:41:43;21.02;;;7.03;;
86011;SDS011;76591;42.170;27.850;2024-03-25T11:44:09;19.63;;;7.30;;
86011;SDS011;76591;42.170;27.850;2024-03-25T11:46:36;16.83;;;6.70;;
86011;SDS011;76591;42.170;27.850;2024-03-25T11:49:06;18.30;;;6.72;;
86011;SDS011;76591;42.170;27.850;2024-03-25T11:51:35;11.40;;;3.85;;
86011;SDS011;76591;42.170;27.850;2024-03-25T11:54:04;7.10;;;2.78;;
86011;SDS011;76591;42.170;27.850;2024-03-25T11:56:33;9.80;;;4.53;;
86011;SDS011;76591;42.170;27.850;2024-03-25T11:58:59;8.75;;;4.95;;
86011;SDS011;76591;42.170;27.850;2024-03-25T12:01:25;10.13;;;4.60;;
86011;SDS011;76591;42.170;27.850;2024-03-25T12:03:51;11.98;;;4.13;;
86011;SDS011;76591;42.170;27.850;2024-03-25T12:06:17;8.40;;;4.45;;
86011;SDS011;76591;42.170;27.850;2024-03-25T12:08:42;8.27;;;3.35;;
86011;SDS011;76591;42.170;27.850;2024-03-25T12:11:31;5.65;;;2.88;;
86011;SDS011;76591;42.170;27.850;2024-03-25T12:13:57;10.35;;;4.25;;
86011;SDS011;76591;42.170;27.850;2024-03-25T12:16:24;10.73;;;4.20;;
86011;SDS011;76591;42.170;27.850;2024-03-25T12:18:50;7.28;;;3.80;;
86011;SDS011;76591;42.170;27.850;2024-03-25T12:21:17;6.78;;;2.70;;
86011;SDS011;76591;42.170;27.850;2024-03-25T12:23:43;7.38;;;2.17;;
86011;SDS011;76591;42.170;27.850;2024-03-25T12:26:09;3.97;;;2.00;;
86011;SDS011;76591;42.170;27.850;2024-03-25T12:28:35;5.28;;;3.00;;
86011;SDS011;76591;42.170;27.850;2024-03-25T12:31:03;9.15;;;3.20;;
86011;SDS011;76591;42.170;27.850;2024-03-25T12:33:42;3.72;;;1.33;;
86011;SDS011;76591;42.170;27.850;2024-03-25T12:36:09;4.97;;;2.38;;
86011;SDS011;76591;42.170;27.850;2024-03-25T12:38:37;4.78;;;2.65;;
86011;SDS011;76591;42.170;27.850;2024-03-25T12:41:09;5.00;;;2.67;;
86011;SDS011;76591;42.170;27.850;2024-03-25T12:43:42;6.18;;;2.72;;
86011;SDS011;76591;42.170;27.850;2024-03-25T12:46:09;5.45;;;2.47;;
86011;SDS011;76591;42.170;27.850;2024-03-25T12:48:36;12.15;;;3.70;;
86011;SDS011;76591;42.170;27.850;2024-03-25T12:51:02;6.30;;;3.38;;
86011;SDS011;76591;42.170;27.850;2024-03-25T12:53:28;7.18;;;3.65;;
86011;SDS011;76591;42.170;27.850;2024-03-25T12:55:54;4.20;;;2.97;;
86011;SDS011;76591;42.170;27.850;2024-03-25T12:58:19;4.53;;;2.65;;
86011;SDS011;76591;42.170;27.850;2024-03-25T13:00:45;6.72;;;2.83;;
86011;SDS011;76591;42.170;27.850;2024-03-25T13:03:11;4.70;;;3.28;;
86011;SDS011;76591;42.170;27.850;2024-03-25T13:05:38;3.05;;;2.03;;
86011;SDS011;76591;42.170;27.850;2024-03-25T13:08:03;1.52;;;1.25;;
86011;SDS011;76591;42.170;27.850;2024-03-25T13:10:29;5.22;;;2.88;;
86011;SDS011;76591;42.170;27.850;2024-03-25T13:12:56;2.05;;;1.52;;
86011;SDS011;76591;42.170;27.850;2024-03-25T13:15:22;4.70;;;2.38;;
86011;SDS011;76591;42.170;27.850;2024-03-25T13:17:48;3.47;;;1.88;;
86011;SDS011;76591;42.170;27.850;2024-03-25T13:20:13;2.83;;;1.58;;
86011;SDS011;76591;42.170;27.850;2024-03-25T13:22:39;3.78;;;1.95;;
86011;SDS011;76591;42.170;27.850;2024-03-25T13:25:08;3.75;;;2.08;;
86011;SDS011;76591;42.170;27.850;2024-03-25T13:27:34;6.05;;;3.45;;
86011;SDS011;76591;42.170;27.850;2024-03-25T13:30:00;4.13;;;2.30;;
86011;SDS011;76591;42.170;27.850;2024-03-25T13:32:25;6.40;;;3.38;;
86011;SDS011;76591;42.170;27.850;2024-03-25T13:34:51;1.70;;;1.58;;
86011;SDS011;76591;42.170;27.850;2024-03-25T13:37:17;3.10;;;1.58;;
86011;SDS011;76591;42.170;27.850;2024-03-25T13:39:42;1.55;;;1.33;;
86011;SDS011;76591;42.170;27.850;2024-03-25T13:42:08;4.95;;;1.60;;
86011;SDS011;76591;42.170;27.850;2024-03-25T13:44:34;3.67;;;2.28;;
86011;SDS011;76591;42.170;27.850;2024-03-25T13:46:59;3.15;;;2.33;;
86011;SDS011;76591;42.170;27.850;2024-03-25T13:49:25;2.75;;;1.67;;
86011;SDS011;76591;42.170;27.850;2024-03-25T13:51:51;4.20;;;1.67;;
86011;SDS011;76591;42.170;27.850;2024-03-25T13:54:23;4.75;;;2.22;;
86011;SDS011;76591;42.170;27.850;2024-03-25T13:56:52;10.35;;;3.08;;
86011;SDS011;76591;42.170;27.850;2024-03-25T13:59:18;4.50;;;2.33;;
86011;SDS011;76591;42.170;27.850;2024-03-25T14:01:44;6.30;;;1.55;;
86011;SDS011;76591;42.170;27.850;2024-03-25T14:04:09;2.92;;;1.95;;
86011;SDS011;76591;42.170;27.850;2024-03-25T14:06:35;4.57;;;3.10;;
86011;SDS011;76591;42.170;27.850;2024-03-25T14:09:01;5.45;;;4.20;;
86011;SDS011;76591;42.170;27.850;2024-03-25T14:11:31;2.85;;;1.95;;
86011;SDS011;76591;42.170;27.850;2024-03-25T14:13:56;4.95;;;2.70;;
86011;SDS011;76591;42.170;27.850;2024-03-25T14:16:22;5.38;;;2.95;;
86011;SDS011;76591;42.170;27.850;2024-03-25T14:18:48;7.25;;;3.33;;
86011;SDS011;76591;42.170;27.850;2024-03-25T14:21:13;10.82;;;4.75;;